createdAt,value
2023-05-04T00:18:19.509Z,20.1
2023-05-04T00:48:19.507Z,20.0
2023-05-04T01:18:19.470Z,20.0
2023-05-04T01:48:19.509Z,19.9
2023-05-04T02:18:19.485Z,19.8
2023-05-04T02:48:19.226Z,19.8
2023-05-04T03:18:19.464Z,19.8
2023-05-04T03:48:19.507Z,19.7
2023-05-04T04:18:19.483Z,19.7
2023-05-04T04:48:19.475Z,19.8
2023-05-04T05:18:19.497Z,19.9
2023-05-04T05:48:19.493Z,19.9
2023-05-04T06:18:19.515Z,19.8
2023-05-04T06:48:19.485Z,19.8
2023-05-04T07:18:19.483Z,20.0
2023-05-04T07:48:19.460Z,20.1
2023-05-04T08:18:19.478Z,20.3
2023-05-04T08:48:19.493Z,20.4
2023-05-04T09:18:19.265Z,20.4
2023-05-04T09:48:19.460Z,20.5
2023-05-04T10:18:19.493Z,20.5
2023-05-04T10:48:19.513Z,20.5
2023-05-04T11:18:19.195Z,20.5
2023-05-04T11:48:19.527Z,20.4
2023-05-04T12:18:19.453Z,20.4
2023-05-04T12:48:19.438Z,20.3
2023-05-04T13:18:19.475Z,20.3
2023-05-04T13:48:19.466Z,20.3
2023-05-04T14:18:19.452Z,20.3
2023-05-04T14:48:19.445Z,20.3
2023-05-04T15:18:19.471Z,20.3
2023-05-04T15:48:19.519Z,20.3
2023-05-04T16:48:19.440Z,20.3
2023-05-04T17:18:19.451Z,20.3
2023-05-04T17:48:19.531Z,20.3
2023-05-04T18:18:19.129Z,20.3
2023-05-04T18:48:19.251Z,20.2
2023-05-04T19:18:19.460Z,20.1
2023-05-04T19:48:19.450Z,20.1
2023-05-04T20:18:19.446Z,20.0
2023-05-04T20:48:19.433Z,20.0
2023-05-04T21:18:19.421Z,20.0
2023-05-04T21:48:19.444Z,20.0
2023-05-04T22:18:19.432Z,19.9
2023-05-04T22:48:19.397Z,19.9
2023-05-04T23:18:19.393Z,19.8
2023-05-04T23:48:19.423Z,19.8
